createdAt,value
2018-02-01T00:00:40.206Z,2.70
2018-02-01T00:03:08.921Z,2.70
2018-02-01T00:05:35.824Z,2.70
2018-02-01T00:08:03.516Z,2.80
2018-02-01T00:10:30.419Z,2.70
2018-02-01T00:12:57.364Z,2.70
2018-02-01T00:15:24.272Z,2.70
2018-02-01T00:17:51.172Z,2.60
2018-02-01T00:20:19.889Z,2.60
2018-02-01T00:22:46.815Z,2.60
2018-02-01T00:25:14.486Z,2.50
2018-02-01T00:27:41.417Z,2.50
2018-02-01T00:30:09.097Z,2.50
2018-02-01T00:32:36.033Z,2.50
2018-02-01T00:35:03.015Z,2.50
2018-02-01T00:37:29.944Z,2.50
2018-02-01T00:39:56.849Z,2.40
2018-02-01T00:42:24.552Z,2.40
2018-02-01T00:44:51.485Z,2.40
2018-02-01T00:47:18.413Z,2.40
2018-02-01T00:49:46.085Z,2.30
2018-02-01T00:52:13.015Z,2.30
2018-02-01T00:54:40.688Z,2.40
2018-02-01T00:57:07.645Z,2.40
2018-02-01T00:59:34.552Z,2.50
2018-02-01T01:02:01.460Z,2.50
2018-02-01T01:04:28.396Z,2.50
2018-02-01T01:06:55.304Z,2.50
2018-02-01T01:09:22.995Z,2.60
2018-02-01T01:11:49.900Z,2.60
2018-02-01T01:14:17.600Z,2.70
2018-02-01T01:16:44.504Z,2.60
2018-02-01T01:19:12.199Z,2.70
2018-02-01T01:21:39.100Z,2.60
2018-02-01T01:24:06.036Z,2.60
2018-02-01T01:26:32.952Z,2.50
2018-02-01T01:28:59.890Z,2.40
2018-02-01T01:31:26.792Z,2.30
2018-02-01T01:33:54.492Z,2.30
2018-02-01T01:36:21.391Z,2.30
2018-02-01T01:38:49.096Z,2.10
2018-02-01T01:41:15.991Z,2.10
2018-02-01T01:43:42.919Z,2.10
2018-02-01T01:46:10.635Z,2.10
2018-02-01T01:48:37.561Z,2.00
2018-02-01T01:51:05.232Z,2.10
2018-02-01T01:53:32.147Z,2.00
2018-02-01T01:55:59.829Z,2.10
2018-02-01T01:58:27.532Z,2.10
2018-02-01T02:00:54.436Z,2.10
2018-02-01T02:03:22.134Z,2.00
2018-02-01T02:05:49.049Z,2.00
2018-02-01T02:08:16.922Z,2.00
2018-02-01T02:10:43.835Z,1.90
2018-02-01T02:13:10.762Z,1.90
2018-02-01T02:15:37.672Z,1.80
2018-02-01T02:18:04.601Z,1.90
2018-02-01T02:20:31.508Z,1.90
2018-02-01T02:22:58.444Z,1.80
2018-02-01T02:25:25.352Z,1.80
2018-02-01T02:27:52.284Z,1.80
2018-02-01T02:30:19.195Z,1.80
2018-02-01T02:32:46.887Z,1.70
2018-02-01T02:35:13.788Z,1.70
2018-02-01T02:37:40.715Z,1.70
2018-02-01T02:40:07.624Z,1.70
2018-02-01T02:42:34.552Z,1.70
2018-02-01T02:45:01.456Z,1.80
2018-02-01T02:47:28.379Z,1.80
2018-02-01T02:49:55.280Z,1.80
2018-02-01T02:52:22.207Z,1.80
2018-02-01T02:54:49.881Z,1.80
2018-02-01T02:57:17.572Z,1.80
2018-02-01T02:59:44.484Z,1.80
2018-02-01T03:02:12.182Z,2.00
2018-02-01T03:04:39.079Z,2.00
2018-02-01T03:07:06.752Z,2.00
2018-02-01T03:09:34.444Z,2.00
2018-02-01T03:12:01.360Z,2.00
2018-02-01T03:14:29.053Z,2.00
2018-02-01T03:16:55.947Z,2.00
2018-02-01T03:19:22.880Z,2.10
2018-02-01T03:21:49.791Z,2.10
2018-02-01T03:24:16.707Z,2.10
2018-02-01T03:26:44.552Z,2.10
2018-02-01T03:29:12.252Z,2.10
2018-02-01T03:31:41.103Z,2.10
2018-02-01T03:34:08.796Z,2.00
2018-02-01T03:36:35.696Z,2.00
2018-02-01T03:39:02.623Z,2.00
2018-02-01T03:41:29.523Z,1.90
2018-02-01T03:43:56.460Z,1.90
2018-02-01T03:46:23.388Z,1.90
2018-02-01T03:48:51.084Z,1.80
2018-02-01T03:51:17.979Z,1.80
2018-02-01T03:53:44.910Z,1.80
2018-02-01T03:56:11.819Z,1.80
2018-02-01T03:58:38.755Z,1.80
2018-02-01T04:01:05.655Z,1.70
2018-02-01T04:03:32.582Z,1.70
2018-02-01T04:05:59.488Z,1.70
2018-02-01T04:08:27.343Z,1.60
2018-02-01T04:10:54.243Z,1.60
2018-02-01T04:13:21.173Z,1.60
2018-02-01T04:15:48.082Z,1.60
2018-02-01T04:18:15.937Z,1.50
2018-02-01T04:20:43.612Z,1.50
2018-02-01T04:23:11.588Z,1.50
2018-02-01T04:25:38.492Z,1.60
2018-02-01T04:28:05.394Z,1.60
2018-02-01T04:30:32.320Z,1.60
2018-02-01T04:32:59.236Z,1.60
2018-02-01T04:35:26.927Z,1.80
2018-02-01T04:37:53.827Z,1.90
2018-02-01T04:40:20.754Z,1.90
2018-02-01T04:42:47.655Z,1.90
2018-02-01T04:45:14.579Z,1.80
2018-02-01T04:47:43.245Z,1.70
2018-02-01T04:50:10.168Z,1.70
2018-02-01T04:52:37.076Z,1.70
2018-02-01T04:55:04.000Z,1.70
2018-02-01T04:57:30.908Z,1.60
2018-02-01T04:59:57.836Z,1.60
2018-02-01T05:02:24.745Z,1.50
2018-02-01T05:04:51.675Z,1.50
2018-02-01T05:07:19.367Z,1.50
2018-02-01T05:09:46.288Z,1.50
2018-02-01T05:12:13.187Z,1.40
2018-02-01T05:14:40.122Z,1.40
2018-02-01T05:17:07.052Z,1.50
2018-02-01T05:19:33.979Z,1.50
2018-02-01T05:22:00.884Z,1.40
2018-02-01T05:24:28.584Z,1.30
2018-02-01T05:26:55.496Z,1.30
2018-02-01T05:29:23.175Z,1.30
2018-02-01T05:31:51.012Z,1.20
2018-02-01T05:34:17.936Z,1.40
2018-02-01T05:36:44.833Z,1.30
2018-02-01T05:39:11.756Z,1.30
2018-02-01T05:41:39.415Z,1.40
2018-02-01T05:44:08.121Z,1.40
2018-02-01T05:46:35.040Z,1.40
2018-02-01T05:49:01.965Z,1.30
2018-02-01T05:51:28.884Z,1.30
2018-02-01T05:53:55.813Z,1.30
2018-02-01T05:56:22.721Z,1.40
2018-02-01T05:58:50.425Z,1.60
2018-02-01T06:01:17.328Z,1.60
2018-02-01T06:03:46.036Z,1.80
2018-02-01T06:06:12.942Z,1.70
2018-02-01T06:08:39.902Z,1.80
2018-02-01T06:11:07.561Z,1.80
2018-02-01T06:13:34.507Z,1.70
2018-02-01T06:16:02.161Z,1.90
2018-02-01T06:18:29.100Z,1.90
2018-02-01T06:20:56.976Z,1.90
2018-02-01T06:23:24.855Z,1.90
2018-02-01T06:25:52.525Z,2.00
2018-02-01T06:28:20.224Z,2.00
2018-02-01T06:30:47.124Z,2.00
2018-02-01T06:33:14.822Z,2.00
2018-02-01T06:35:41.733Z,2.00
2018-02-01T06:38:09.440Z,2.10
2018-02-01T06:40:36.381Z,2.00
2018-02-01T06:43:04.333Z,2.10
2018-02-01T06:45:31.241Z,2.10
2018-02-01T06:47:59.315Z,2.10
2018-02-01T06:50:26.989Z,2.10
2018-02-01T06:52:54.683Z,2.10
2018-02-01T06:55:21.599Z,2.10
2018-02-01T06:57:48.527Z,2.20
2018-02-01T07:00:17.212Z,2.20
2018-02-01T07:02:44.906Z,2.20
2018-02-01T07:05:11.812Z,2.10
2018-02-01T07:07:38.748Z,2.20
2018-02-01T07:10:06.416Z,2.30
2018-02-01T07:12:33.344Z,2.20
2018-02-01T07:15:01.227Z,2.20
2018-02-01T07:17:28.930Z,2.30
2018-02-01T07:19:55.832Z,2.30
2018-02-01T07:22:22.760Z,2.30
2018-02-01T07:24:49.668Z,2.30
2018-02-01T07:27:16.595Z,2.30
2018-02-01T07:29:44.401Z,2.30
2018-02-01T07:32:11.343Z,2.40
2018-02-01T07:34:38.269Z,2.40
2018-02-01T07:37:07.084Z,2.50
2018-02-01T07:39:34.012Z,2.50
2018-02-01T07:42:00.936Z,2.50
2018-02-01T07:44:27.871Z,2.50
2018-02-01T07:46:55.735Z,2.50
2018-02-01T07:49:22.631Z,2.50
2018-02-01T07:51:49.568Z,2.50
2018-02-01T07:54:16.478Z,2.50
2018-02-01T07:56:43.424Z,2.60
2018-02-01T07:59:10.336Z,2.60
2018-02-01T08:01:38.053Z,2.60
2018-02-01T08:04:05.002Z,2.50
2018-02-01T08:06:31.945Z,2.60
2018-02-01T08:08:58.896Z,2.60
2018-02-01T08:11:25.808Z,2.70
2018-02-01T08:13:52.748Z,2.60
2018-02-01T08:16:19.677Z,2.70
2018-02-01T08:18:47.360Z,2.70
2018-02-01T08:21:14.293Z,2.70
2018-02-01T08:23:41.209Z,2.70
2018-02-01T08:26:08.143Z,2.80
2018-02-01T08:28:35.051Z,2.80
2018-02-01T08:31:01.981Z,2.80
2018-02-01T08:33:28.884Z,2.80
2018-02-01T08:35:55.792Z,2.80
2018-02-01T08:38:22.739Z,2.90
2018-02-01T08:40:49.665Z,2.90
2018-02-01T08:43:16.605Z,2.90
2018-02-01T08:45:43.513Z,2.90
2018-02-01T08:48:11.216Z,3.00
2018-02-01T08:50:38.148Z,3.00
2018-02-01T08:53:05.060Z,3.00
2018-02-01T08:55:32.760Z,3.10
2018-02-01T08:57:59.669Z,3.00
2018-02-01T09:00:28.375Z,3.10
2018-02-01T09:02:55.287Z,3.10
2018-02-01T09:05:22.235Z,3.10
2018-02-01T09:07:49.176Z,3.20
2018-02-01T09:10:16.084Z,3.20
2018-02-01T09:12:43.024Z,3.20
2018-02-01T09:15:09.939Z,3.30
2018-02-01T09:17:36.884Z,3.30
2018-02-01T09:20:03.800Z,3.40
2018-02-01T09:22:31.706Z,3.20
2018-02-01T09:24:59.648Z,3.20
2018-02-01T09:27:27.355Z,3.20
2018-02-01T09:29:54.260Z,3.20
2018-02-01T09:32:21.960Z,3.30
2018-02-01T09:34:48.904Z,3.30
2018-02-01T09:37:15.835Z,3.30
2018-02-01T09:39:42.738Z,3.40
2018-02-01T09:42:09.659Z,3.40
2018-02-01T09:44:36.573Z,3.30
2018-02-01T09:47:04.415Z,3.50
2018-02-01T09:49:32.107Z,3.60
2018-02-01T09:51:59.043Z,3.60
2018-02-01T09:54:25.953Z,3.60
2018-02-01T09:56:52.893Z,3.50
2018-02-01T09:59:20.562Z,3.50
2018-02-01T10:01:48.256Z,3.50
2018-02-01T10:04:15.155Z,3.50
2018-02-01T10:06:42.850Z,3.60
2018-02-01T10:09:09.747Z,3.60
2018-02-01T10:11:36.675Z,3.60
2018-02-01T10:14:03.583Z,3.80
2018-02-01T10:16:30.504Z,3.80
2018-02-01T10:18:58.175Z,3.70
2018-02-01T10:21:25.104Z,3.70
2018-02-01T10:23:52.776Z,3.70
2018-02-01T10:26:20.482Z,3.80
2018-02-01T10:28:48.400Z,3.80
2018-02-01T10:31:17.095Z,3.80
2018-02-01T10:33:44.767Z,3.80
2018-02-01T10:36:11.691Z,3.80
2018-02-01T10:38:40.363Z,3.80
2018-02-01T10:41:07.301Z,3.70
2018-02-01T10:43:34.215Z,3.70
2018-02-01T10:46:01.155Z,3.80
2018-02-01T10:48:28.064Z,3.80
2018-02-01T10:50:56.757Z,3.80
2018-02-01T10:53:23.655Z,3.80
2018-02-01T10:55:50.584Z,3.70
2018-02-01T10:58:17.483Z,3.70
2018-02-01T11:00:45.347Z,3.80
2018-02-01T11:03:13.932Z,4.10
2018-02-01T11:05:40.860Z,4.10
2018-02-01T11:08:07.763Z,4.20
2018-02-01T11:10:34.692Z,4.20
2018-02-01T11:13:01.599Z,4.20
2018-02-01T11:15:29.300Z,4.30
2018-02-01T11:17:56.195Z,4.20
2018-02-01T11:20:23.119Z,4.40
2018-02-01T11:22:50.038Z,4.20
2018-02-01T11:25:17.984Z,4.20
2018-02-01T11:27:45.859Z,4.30
2018-02-01T11:30:12.792Z,4.20
2018-02-01T11:32:39.707Z,4.20
2018-02-01T11:35:06.643Z,4.10
2018-02-01T11:37:33.576Z,4.10
2018-02-01T11:40:00.519Z,4.10
2018-02-01T11:42:28.429Z,4.20
2018-02-01T11:44:56.105Z,4.40
2018-02-01T11:47:23.961Z,4.30
2018-02-01T11:49:55.096Z,4.60
2018-02-01T11:52:22.784Z,4.40
2018-02-01T11:54:49.724Z,4.40
2018-02-01T11:57:17.560Z,4.30
2018-02-01T11:59:45.248Z,4.30
2018-02-01T12:02:15.152Z,4.30
2018-02-01T12:04:44.004Z,4.30
2018-02-01T12:07:10.928Z,4.40
2018-02-01T12:09:37.877Z,4.30
2018-02-01T12:12:05.763Z,4.30
2018-02-01T12:14:32.709Z,4.30
2018-02-01T12:16:59.620Z,4.20
2018-02-01T12:19:26.562Z,4.20
2018-02-01T12:21:59.012Z,4.20
2018-02-01T12:24:25.940Z,4.20
2018-02-01T12:26:52.850Z,4.20
2018-02-01T12:29:19.777Z,4.20
2018-02-01T12:31:46.697Z,4.10
2018-02-01T12:34:13.631Z,4.30
2018-02-01T12:36:40.552Z,4.30
2018-02-01T12:39:09.260Z,4.10
2018-02-01T12:41:36.190Z,4.20
2018-02-01T12:44:03.898Z,4.10
2018-02-01T12:46:30.818Z,4.10
2018-02-01T12:48:57.770Z,4.10
2018-02-01T12:51:24.688Z,4.10
2018-02-01T12:53:52.384Z,4.10
2018-02-01T12:56:19.287Z,4.10
2018-02-01T12:58:46.207Z,4.20
2018-02-01T13:01:13.115Z,4.20
2018-02-01T13:03:40.048Z,4.20
2018-02-01T13:06:07.006Z,4.30
2018-02-01T13:08:33.899Z,4.20
2018-02-01T13:11:01.600Z,4.30
2018-02-01T13:13:28.541Z,4.30
2018-02-01T13:15:55.447Z,4.20
2018-02-01T13:18:23.883Z,4.30
2018-02-01T13:20:51.799Z,4.30
2018-02-01T13:23:19.508Z,4.30
2018-02-01T13:25:46.414Z,4.20
2018-02-01T13:28:14.120Z,4.40
2018-02-01T13:30:41.033Z,4.30
2018-02-01T13:33:08.880Z,4.50
2018-02-01T13:35:35.813Z,4.50
2018-02-01T13:38:02.749Z,4.30
2018-02-01T13:40:29.667Z,4.30
2018-02-01T13:42:56.599Z,4.30
2018-02-01T13:45:23.506Z,4.30
2018-02-01T13:47:51.221Z,4.40
2018-02-01T13:50:18.138Z,4.40
2018-02-01T13:52:46.995Z,4.40
2018-02-01T13:55:13.936Z,4.50
2018-02-01T13:57:40.907Z,4.40
2018-02-01T14:00:07.824Z,4.40
2018-02-01T14:02:35.519Z,4.40
2018-02-01T14:05:02.441Z,4.30
2018-02-01T14:07:29.372Z,4.30
2018-02-01T14:09:57.065Z,4.30
2018-02-01T14:12:24.003Z,4.30
2018-02-01T14:14:51.778Z,4.30
2018-02-01T14:17:18.747Z,4.30
2018-02-01T14:19:45.648Z,4.30
2018-02-01T14:22:12.593Z,4.30
2018-02-01T14:24:40.542Z,4.30
2018-02-01T14:27:09.251Z,4.30
2018-02-01T14:29:36.164Z,4.30
2018-02-01T14:32:03.880Z,4.30
2018-02-01T14:34:30.793Z,4.30
2018-02-01T14:36:57.739Z,4.30
2018-02-01T14:39:24.648Z,4.30
2018-02-01T14:41:51.585Z,4.30
2018-02-01T14:44:19.493Z,4.30
2018-02-01T14:46:46.434Z,4.30
2018-02-01T14:49:14.117Z,4.20
2018-02-01T14:51:41.048Z,4.20
2018-02-01T14:54:09.719Z,4.20
2018-02-01T14:56:37.416Z,4.20
2018-02-01T14:59:04.316Z,4.20
2018-02-01T15:01:32.023Z,4.20
2018-02-01T15:03:58.921Z,4.20
2018-02-01T15:06:25.857Z,4.20
2018-02-01T15:08:52.795Z,4.10
2018-02-01T15:11:19.716Z,4.20
2018-02-01T15:13:46.665Z,4.20
2018-02-01T15:16:15.498Z,4.20
2018-02-01T15:18:47.274Z,4.10
2018-02-01T15:21:17.902Z,4.10
2018-02-01T15:23:44.832Z,4.10
2018-02-01T15:26:12.544Z,4.20
2018-02-01T15:28:39.456Z,4.10
2018-02-01T15:31:09.411Z,4.10
2018-02-01T15:33:36.353Z,4.10
2018-02-01T15:36:03.271Z,4.00
2018-02-01T15:38:30.207Z,4.00
2018-02-01T15:40:57.145Z,4.10
2018-02-01T15:43:24.092Z,4.00
2018-02-01T15:45:51.044Z,4.00
2018-02-01T15:48:17.977Z,4.10
2018-02-01T15:50:44.920Z,4.00
2018-02-01T15:53:11.848Z,4.10
2018-02-01T15:55:38.817Z,4.00
2018-02-01T15:58:05.739Z,4.00
2018-02-01T16:00:34.384Z,4.00
2018-02-01T16:03:01.296Z,4.00
2018-02-01T16:05:28.242Z,4.00
2018-02-01T16:07:57.128Z,4.00
2018-02-01T16:10:24.068Z,4.00
2018-02-01T16:12:51.024Z,4.00
2018-02-01T16:15:17.976Z,4.00
2018-02-01T16:17:44.886Z,3.80
2018-02-01T16:20:11.874Z,3.80
2018-02-01T16:22:38.853Z,3.70
2018-02-01T16:25:06.750Z,3.60
2018-02-01T16:27:34.745Z,3.60
2018-02-01T16:30:01.754Z,3.50
2018-02-01T16:32:28.671Z,3.40
2018-02-01T16:34:55.613Z,3.40
2018-02-01T16:37:22.575Z,3.30
2018-02-01T16:39:49.524Z,3.30
2018-02-01T16:42:16.437Z,3.30
2018-02-01T16:44:44.137Z,3.30
2018-02-01T16:47:11.040Z,3.30
2018-02-01T16:49:37.964Z,3.30
2018-02-01T16:52:06.379Z,3.30
2018-02-01T16:54:33.332Z,3.30
2018-02-01T16:57:01.228Z,3.30
2018-02-01T16:59:28.188Z,3.30
2018-02-01T17:01:58.988Z,3.30
2018-02-01T17:04:27.879Z,3.20
2018-02-01T17:06:54.832Z,3.10
2018-02-01T17:09:21.740Z,3.10
2018-02-01T17:11:49.439Z,3.10
2018-02-01T17:14:17.288Z,3.10
2018-02-01T17:16:45.925Z,3.10
2018-02-01T17:19:12.829Z,3.20
2018-02-01T17:21:39.740Z,3.10
2018-02-01T17:24:07.576Z,3.10
2018-02-01T17:26:34.492Z,3.00
2018-02-01T17:29:01.438Z,3.00
2018-02-01T17:31:28.335Z,3.00
2018-02-01T17:33:56.031Z,3.00
2018-02-01T17:36:24.852Z,2.90
2018-02-01T17:38:52.696Z,2.90
2018-02-01T17:41:19.649Z,2.80
2018-02-01T17:43:46.586Z,2.90
2018-02-01T17:46:13.501Z,2.90
2018-02-01T17:48:41.220Z,2.90
2018-02-01T17:51:08.128Z,2.90
2018-02-01T17:53:36.103Z,3.00
2018-02-01T17:56:03.021Z,3.10
2018-02-01T17:58:30.708Z,3.20
2018-02-01T18:00:57.617Z,3.10
2018-02-01T18:03:25.504Z,3.20
2018-02-01T18:05:54.359Z,3.20
2018-02-01T18:08:21.312Z,3.20
2018-02-01T18:10:49.020Z,3.30
2018-02-01T18:13:15.929Z,3.20
2018-02-01T18:15:43.631Z,3.20
2018-02-01T18:18:10.541Z,3.20
2018-02-01T18:20:38.426Z,3.20
2018-02-01T18:23:08.526Z,3.10
2018-02-01T18:25:37.435Z,3.20
2018-02-01T18:28:05.297Z,3.10
2018-02-01T18:30:32.256Z,3.00
2018-02-01T18:32:59.172Z,3.00
2018-02-01T18:35:26.882Z,3.10
2018-02-01T18:37:55.699Z,3.00
2018-02-01T18:40:22.656Z,3.10
2018-02-01T18:42:52.247Z,3.10
2018-02-01T18:45:19.196Z,3.10
2018-02-01T18:47:47.113Z,3.20
2018-02-01T18:50:16.001Z,3.20
2018-02-01T18:52:42.931Z,3.20
2018-02-01T18:55:16.327Z,3.30
2018-02-01T18:57:44.201Z,3.30
2018-02-01T19:00:11.139Z,3.30
2018-02-01T19:02:38.408Z,3.20
2018-02-01T19:05:05.317Z,3.30
2018-02-01T19:07:33.001Z,3.30
2018-02-01T19:09:59.941Z,3.30
2018-02-01T19:12:26.849Z,3.30
2018-02-01T19:14:54.757Z,3.30
2018-02-01T19:17:22.588Z,3.40
2018-02-01T19:19:49.520Z,3.40
2018-02-01T19:22:17.455Z,3.30
2018-02-01T19:24:45.392Z,3.30
2018-02-01T19:27:13.072Z,3.30
2018-02-01T19:29:40.018Z,3.30
2018-02-01T19:32:07.708Z,3.30
2018-02-01T19:34:34.648Z,3.30
2018-02-01T19:37:02.497Z,3.30
2018-02-01T19:39:30.204Z,3.30
2018-02-01T19:41:57.121Z,3.20
2018-02-01T19:44:24.069Z,3.20
2018-02-01T19:46:50.987Z,3.10
2018-02-01T19:49:18.700Z,3.20
2018-02-01T19:51:45.618Z,3.30
2018-02-01T19:54:12.636Z,3.20
2018-02-01T19:56:39.531Z,3.20
2018-02-01T19:59:07.492Z,3.20
2018-02-01T20:01:34.508Z,3.10
2018-02-01T20:04:02.388Z,3.30
2018-02-01T20:06:29.317Z,3.30
2018-02-01T20:08:57.020Z,3.10
2018-02-01T20:11:23.923Z,3.10
2018-02-01T20:13:51.653Z,3.20
2018-02-01T20:16:23.081Z,3.20
2018-02-01T20:18:51.013Z,3.20
2018-02-01T20:21:17.948Z,3.30
2018-02-01T20:23:45.697Z,3.30
2018-02-01T20:26:13.396Z,3.30
2018-02-01T20:28:43.860Z,3.20
2018-02-01T20:31:10.795Z,3.20
2018-02-01T20:33:37.767Z,3.20
2018-02-01T20:36:04.688Z,3.20
2018-02-01T20:38:31.633Z,3.50
2018-02-01T20:40:58.536Z,3.60
2018-02-01T20:43:25.469Z,3.50
2018-02-01T20:45:53.685Z,3.30
2018-02-01T20:48:20.616Z,3.20
2018-02-01T20:50:47.548Z,3.10
2018-02-01T20:53:15.388Z,3.20
2018-02-01T20:55:43.093Z,3.20
2018-02-01T20:58:10.024Z,3.20
2018-02-01T21:00:36.965Z,3.30
2018-02-01T21:03:03.863Z,3.20
2018-02-01T21:05:30.804Z,3.20
2018-02-01T21:07:57.720Z,3.30
2018-02-01T21:10:24.653Z,3.30
2018-02-01T21:12:51.564Z,3.30
2018-02-01T21:15:19.276Z,3.30
2018-02-01T21:17:47.223Z,3.30
2018-02-01T21:20:14.128Z,3.40
2018-02-01T21:22:41.072Z,3.40
2018-02-01T21:25:07.988Z,3.40
2018-02-01T21:27:34.964Z,3.40
2018-02-01T21:30:01.875Z,3.40
2018-02-01T21:32:29.809Z,3.40
2018-02-01T21:34:56.720Z,3.40
2018-02-01T21:37:25.656Z,3.50
2018-02-01T21:39:52.634Z,3.40
2018-02-01T21:42:20.541Z,3.50
2018-02-01T21:44:48.218Z,3.50
2018-02-01T21:47:15.161Z,3.50
2018-02-01T21:49:42.082Z,3.50
2018-02-01T21:52:11.012Z,3.40
2018-02-01T21:54:37.995Z,3.40
2018-02-01T21:57:06.927Z,3.30
2018-02-01T21:59:33.904Z,3.30
2018-02-01T22:02:00.840Z,3.30
2018-02-01T22:04:27.757Z,3.20
2018-02-01T22:06:57.371Z,3.10
2018-02-01T22:09:24.284Z,3.00
2018-02-01T22:11:51.212Z,3.10
2018-02-01T22:14:18.131Z,2.90
2018-02-01T22:16:45.065Z,2.80
2018-02-01T22:19:12.002Z,2.80
2018-02-01T22:21:38.932Z,2.80
2018-02-01T22:24:05.845Z,2.70
2018-02-01T22:26:32.775Z,2.70
2018-02-01T22:28:59.687Z,2.80
2018-02-01T22:31:26.617Z,2.80
2018-02-01T22:33:53.521Z,2.80
2018-02-01T22:36:20.464Z,2.80
2018-02-01T22:38:47.385Z,2.80
2018-02-01T22:41:14.347Z,2.90
2018-02-01T22:43:41.297Z,3.00
2018-02-01T22:46:08.237Z,3.00
2018-02-01T22:48:35.908Z,3.00
2018-02-01T22:51:04.352Z,2.90
2018-02-01T22:53:31.264Z,2.90
2018-02-01T22:55:58.196Z,3.00
2018-02-01T22:58:25.867Z,3.00
2018-02-01T23:00:53.572Z,3.00
2018-02-01T23:03:20.481Z,2.90
2018-02-01T23:05:47.411Z,2.80
2018-02-01T23:08:15.092Z,2.90
2018-02-01T23:10:42.017Z,2.90
2018-02-01T23:13:09.677Z,3.00
2018-02-01T23:15:37.383Z,3.00
2018-02-01T23:18:04.287Z,3.00
2018-02-01T23:20:31.987Z,3.00
2018-02-01T23:22:58.908Z,3.00
2018-02-01T23:25:26.771Z,3.00
2018-02-01T23:27:53.688Z,2.90
2018-02-01T23:30:21.379Z,2.90
2018-02-01T23:32:48.311Z,2.90
2018-02-01T23:35:15.998Z,2.90
2018-02-01T23:37:42.904Z,2.80
2018-02-01T23:40:09.836Z,2.80
2018-02-01T23:42:36.740Z,2.70
2018-02-01T23:45:04.688Z,2.80
2018-02-01T23:47:31.633Z,2.80
2018-02-01T23:49:58.547Z,2.80
2018-02-01T23:52:27.263Z,2.70
2018-02-01T23:54:54.200Z,2.70
2018-02-01T23:57:21.105Z,2.70
2018-02-01T23:59:48.827Z,2.70
